CW8250 Weather Reports


Display with metric or nautical units.
time (UTC)temp
F
wind
direction
speed
MPH
gust
MPH
rain 1hr
in
rain 24hr
in
rain mn
in
humidity
%
barometer
mb
20180820105506 68 264 2.0 5.0 0.00 0.02 0.01 85 1019.3
20180820105007 68 268 1.0 3.0 0.00 0.02 0.01 85 1019.3
20180820104506 68 258 1.0 6.0 0.00 0.02 0.01 85 1019.3
20180820103507 68 236 3.0 7.0 0.01 0.02 0.01 86 1019.3
20180820103008 68 308 0.0 3.0 0.01 0.02 0.01 86 1019.3
20180820102008 67 236 3.0 6.0 0.01 0.02 0.01 86 1019.3
20180820101507 67 263 0.0 0.0 0.01 0.02 0.01 87 1019.2
20180820101007 67 244 0.0 3.0 0.01 0.02 0.01 89 1019.2
20180820100507 67 267 2.0 5.0 0.01 0.02 0.01 90 1019.3
20180820100007 66 231 2.0 3.0 0.01 0.02 0.01 90 1019.3
20180820094506 66 233 0.0 3.0 0.01 0.02 0.01 88 1019.3
20180820094007 66 245 3.0 6.0 0.00 0.01 0.00 87 1019.2
20180820093507 67 334 1.0 6.0 0.00 0.01 0.00 86 1019.2
20180820092008 67 266 2.0 7.0 0.00 0.01 0.00 87 1019.0
20180820091008 66 323 2.0 7.0 0.00 0.01 0.00 88 1019.0
20180820090006 66 285 3.0 8.0 0.00 0.01 0.00 87 1018.9
20180820085506 67 329 4.0 6.0 0.00 0.01 0.00 85 1018.9
20180820085007 67 298 0.0 6.0 0.00 0.01 0.00 84 1018.9
20180820084506 67 309 0.0 5.0 0.00 0.01 0.00 83 1018.6
20180820084007 67 320 3.0 7.0 0.00 0.01 0.00 84 1018.6
20180820083007 67 328 3.0 8.0 0.00 0.01 0.00 87 1018.6
20180820082507 67 245 3.0 5.0 0.00 0.01 0.00 88 1018.6
20180820082010 67 265 1.0 5.0 0.00 0.01 0.00 87 1018.4
20180820081008 66 230 1.0 6.0 0.00 0.01 0.00 89 1018.4
20180820080006 65 282 0.0 1.0 0.00 0.01 0.00 89 1018.4
20180820075008 65 291 0.0 3.0 0.00 0.01 0.00 89 1018.3
20180820074507 65 310 2.0 6.0 0.00 0.01 0.00 88 1018.3
20180820074007 65 305 1.0 5.0 0.00 0.01 0.00 88 1018.3
20180820073507 65 257 1.0 3.0 0.00 0.01 0.00 88 1018.3
20180820073007 65 281 1.0 6.0 0.00 0.01 0.00 88 1018.0
20180820072507 66 322 1.0 6.0 0.00 0.01 0.00 88 1018.0
20180820071507 66 250 0.0 3.0 0.00 0.01 0.00 88 1018.0
20180820071007 66 248 0.0 3.0 0.00 0.01 0.00 87 1018.0
20180820070507 65 238 2.0 5.0 0.00 0.01 0.00 88 1018.0
20180820070007 65 246 1.0 3.0 0.00 0.01 0.00 88 1017.9
20180820065506 65 248 1.0 3.0 0.00 0.01 0.00 89 1017.9
20180820065007 65 259 1.0 5.0 0.00 0.01 0.00 89 1017.9
20180820064506 65 316 4.0 8.0 0.00 0.01 0.00 89 1017.5
20180820064007 66 296 0.0 5.0 0.00 0.01 0.00 90 1017.5
20180820063507 66 266 2.0 8.0 0.00 0.01 0.00 90 1017.5
20180820063008 66 243 1.0 3.0 0.00 0.01 0.00 91 1017.5
20180820062506 66 232 1.0 3.0 0.00 0.01 0.00 91 1017.5
20180820061007 66 244 0.0 2.0 0.00 0.01 0.00 92 1017.3
20180820060507 66 244 0.0 0.0 0.00 0.01 0.00 92 1017.3
20180820060007 66 244 1.0 5.0 0.00 0.01 0.00 92 1017.3
20180820055506 66 243 0.0 3.0 0.00 0.01 0.00 92 1017.3
20180820054507 66 243 1.0 3.0 0.00 0.01 0.00 93 1017.2
20180820053007 65 243 1.0 5.0 0.00 0.01 0.00 93 1017.2
20180820052507 65 247 1.0 3.0 0.00 0.01 0.00 93 1017.2
20180820052007 65 254 1.0 3.0 0.00 0.01 0.00 93 1017.1
20180820051506 65 260 1.0 3.0 0.00 0.01 0.00 93 1016.9
20180820051008 65 234 2.0 3.0 0.00 0.01 0.00 93 1016.9
20180820050507 65 234 1.0 3.0 0.00 0.01 0.00 93 1016.9
20180820045506 65 234 1.0 3.0 0.00 0.01 0.00 93 1016.9
20180820045008 65 234 1.0 3.0 0.00 0.01 0.00 93 1016.9
20180820044507 65 234 1.0 3.0 0.00 0.01 0.00 93 1016.8
20180820044008 65 234 1.0 6.0 0.00 0.01 0.00 93 1016.8
20180820043507 65 233 2.0 6.0 0.00 0.01 0.00 93 1016.8
20180820043008 65 232 1.0 3.0 0.00 0.01 0.00 93 1016.8
20180820042507 65 232 0.0 1.0 0.00 0.01 0.00 93 1016.8
20180820041507 65 232 1.0 3.0 0.00 0.01 0.00 93 1016.6
20180820035506 65 232 2.0 7.0 0.00 0.01 0.00 93 1016.6
20180820035008 65 232 1.0 3.0 0.00 0.01 0.00 93 1016.6
20180820034008 65 232 1.0 5.0 0.00 0.01 0.00 93 1016.6
20180820033508 65 232 1.0 5.0 0.00 0.01 0.00 93 1016.6
20180820033008 65 231 1.0 5.0 0.00 0.01 0.00 93 1016.8
20180820032507 65 231 2.0 5.0 0.00 0.01 0.00 93 1016.8
20180820031507 65 231 2.0 5.0 0.00 0.01 0.00 93 1016.8
20180820031008 65 231 1.0 3.0 0.00 0.01 0.00 93 1016.9
20180820030507 65 231 1.0 3.0 0.00 0.01 0.00 93 1016.9
20180820030007 65 231 1.0 3.0 0.00 0.01 0.00 93 1016.9
20180820025507 65 231 1.0 3.0 0.00 0.01 0.00 93 1016.9
20180820025008 65 219 1.0 3.0 0.00 0.01 0.00 93 1016.9
20180820024507 65 219 2.0 5.0 0.00 0.01 0.00 93 1016.9
20180820024007 65 239 3.0 6.0 0.00 0.01 0.00 92 1016.9
20180820023508 65 242 1.0 3.0 0.00 0.01 0.00 92 1016.9
20180820022507 65 215 2.0 5.0 0.00 0.01 0.00 92 1016.9
20180820021507 65 249 2.0 6.0 0.00 0.01 0.00 92 1016.9
20180820021008 65 233 2.0 6.0 0.00 0.01 0.00 92 1016.9
20180820020507 65 234 2.0 6.0 0.00 0.01 0.00 92 1017.0
20180820020007 65 240 3.0 5.0 0.00 0.01 0.00 92 1017.0
20180820015506 65 239 2.0 5.0 0.00 0.01 0.00 92 1017.0
20180820015008 65 234 2.0 6.0 0.00 0.01 0.00 92 1017.0
20180820014507 65 220 2.0 8.0 0.00 0.01 0.00 92 1016.9
20180820014007 65 234 2.0 7.0 0.00 0.01 0.00 92 1016.9
20180820013508 65 213 3.0 7.0 0.00 0.01 0.00 92 1016.9
20180820013008 65 238 2.0 7.0 0.00 0.01 0.00 92 1016.9
20180820012507 65 232 4.0 7.0 0.00 0.01 0.00 92 1016.9
20180820012008 65 240 3.0 7.0 0.00 0.01 0.00 92 1016.9
20180820011507 65 237 2.0 7.0 0.00 0.01 0.00 92 1016.8
20180820011007 65 237 2.0 5.0 0.00 0.01 0.00 92 1016.8
20180820010508 65 236 1.0 3.0 0.00 0.01 0.00 92 1016.8
20180820010007 65 240 2.0 5.0 0.00 0.01 0.00 92 1016.9
20180820005507 65 234 1.0 5.0 0.00 0.01 0.00 92 1016.9
20180820005008 65 219 1.0 5.0 0.00 0.01 0.00 92 1016.9
20180820004508 65 227 0.0 5.0 0.00 0.01 0.00 92 1016.9
20180820002507 65 232 2.0 6.0 0.00 0.01 0.00 92 1016.9
20180820001008 65 236 1.0 3.0 0.00 0.01 0.00 92 1016.9
20180820000507 65 236 2.0 3.0 0.00 0.01 0.00 92 1017.0
20180820000007 65 231 2.0 3.0 0.00 0.01 0.00 92 1017.0
20180819235507 65 246 2.0 5.0 0.00 0.01 0.00 92 1017.0
20180819235008 65 244 1.0 3.0 0.00 0.01 0.00 92 1017.0
20180819234507 65 244 1.0 6.0 0.00 0.01 0.00 92 1017.0
20180819234008 65 231 1.0 3.0 0.00 0.01 0.00 92 1017.0
20180819233008 65 250 1.0 3.0 0.00 0.01 0.00 92 1017.1
20180819232507 65 261 1.0 5.0 0.00 0.01 0.00 92 1017.1
20180819232008 65 217 1.0 5.0 0.00 0.01 0.00 92 1017.3
20180819231008 65 235 2.0 5.0 0.00 0.01 0.00 92 1017.3
20180819230508 65 179 1.0 3.0 0.00 0.01 0.00 92 1017.3
20180819225957 65 250 2.0 5.0 0.00 0.01 0.00 92 1017.3
20180819224957 65 258 1.0 6.0 0.00 0.01 0.00 92 1017.3
20180819224457 65 239 2.0 5.0 0.00 0.01 0.00 92 1017.3
20180819223458 65 232 3.0 7.0 0.00 0.01 0.00 92 1017.3
20180819222958 65 239 2.0 6.0 0.00 0.01 0.00 92 1017.3
20180819222457 65 228 1.0 3.0 0.00 0.01 0.00 92 1017.3
20180819221958 65 207 2.0 7.0 0.00 0.01 0.00 92 1017.3
20180819221457 65 242 5.0 10.0 0.00 0.01 0.00 92 1017.3
20180819220958 65 219 1.0 3.0 0.00 0.01 0.00 92 1017.3
20180819220458 65 250 3.0 5.0 0.00 0.01 0.00 91 1017.3
20180819215957 65 240 2.0 3.0 0.00 0.01 0.00 91 1017.3
20180819215457 65 244 1.0 3.0 0.01 0.01 0.01 91 1017.3
20180819214958 65 242 3.0 7.0 0.00 0.00 0.00 91 1017.3
20180819214457 65 252 0.0 5.0 0.00 0.00 0.00 91 1017.3
20180819213958 65 252 3.0 6.0 0.00 0.00 0.00 90 1017.4
20180819213457 65 254 1.0 3.0 0.00 0.00 0.00 90 1017.2
20180819212957 65 257 2.0 7.0 0.00 0.00 0.00 90 1017.2
20180819211456 65 242 3.0 6.0 0.00 0.00 0.00 89 1017.2
20180819210457 65 248 1.0 3.0 0.00 0.00 0.00 88 1017.2
20180819204457 67 246 3.0 12.0 0.00 0.00 0.00 85 1017.2
20180819203458 67 231 5.0 12.0 0.00 0.00 0.00 84 1017.1
20180819202958 67 223 3.0 12.0 0.00 0.00 0.00 84 1017.1
20180819202457 67 223 3.0 12.0 0.00 0.00 0.00 84 1017.1
20180819201457 67 253 3.0 7.0 0.00 0.00 0.00 83 1017.1
20180819200958 67 229 5.0 8.0 0.00 0.00 0.00 83 1017.1
20180819195957 67 243 3.0 6.0 0.00 0.00 0.00 83 1017.0
20180819195457 67 241 4.0 10.0 0.00 0.00 0.00 83 1017.0
20180819194958 67 236 5.0 7.0 0.00 0.00 0.00 83 1017.0
20180819194457 67 254 4.0 10.0 0.00 0.00 0.00 83 1017.0
20180819193958 67 256 3.0 7.0 0.00 0.00 0.00 83 1017.1
20180819193458 67 237 3.0 7.0 0.00 0.00 0.00 83 1017.1
20180819192958 67 243 5.0 10.0 0.00 0.00 0.00 83 1017.0
20180819192457 67 231 3.0 9.0 0.00 0.00 0.00 83 1017.0
20180819191957 68 224 3.0 8.0 0.00 0.00 0.00 83 1017.0
20180819191457 68 247 3.0 7.0 0.00 0.00 0.00 83 1017.0
20180819185957 68 232 3.0 10.0 0.00 0.00 0.00 82 1017.1
20180819185457 68 222 5.0 10.0 0.00 0.00 0.00 82 1017.1
20180819184958 68 234 3.0 8.0 0.00 0.00 0.00 82 1017.1
20180819184457 68 238 4.0 12.0 0.00 0.00 0.00 82 1017.1
20180819183958 68 226 3.0 8.0 0.00 0.00 0.00 83 1017.1
20180819182958 68 225 5.0 10.0 0.00 0.00 0.00 82 1017.2
20180819182457 68 244 4.0 7.0 0.00 0.00 0.00 82 1017.2
20180819181958 68 231 4.0 7.0 0.00 0.00 0.00 82 1017.2
20180819181457 68 249 3.0 8.0 0.00 0.00 0.00 81 1017.2
20180819180958 68 241 5.0 8.0 0.00 0.00 0.00 81 1017.2
20180819180457 68 233 3.0 9.0 0.00 0.00 0.00 81 1017.2
20180819175957 68 261 4.0 10.0 0.00 0.00 0.00 81 1017.2
20180819175457 68 234 3.0 9.0 0.00 0.00 0.00 81 1017.3
20180819174457 68 266 3.0 12.0 0.00 0.00 0.00 80 1017.3
20180819173500 69 272 3.0 10.0 0.00 0.00 0.00 80 1017.4
20180819172959 69 253 4.0 7.0 0.00 0.00 0.00 80 1017.3
20180819171500 69 245 2.0 12.0 0.00 0.00 0.00 79 1017.4
20180819171001 69 253 5.0 12.0 0.00 0.00 0.00 78 1017.4
20180819170000 70 233 6.0 12.0 0.00 0.00 0.00 76 1017.4
20180819165500 70 242 4.0 12.0 0.00 0.00 0.00 76 1017.3
20180819165000 70 242 4.0 7.0 0.00 0.00 0.00 76 1017.2
20180819163457 70 255 6.0 12.0 0.00 0.00 0.00 75 1017.3
20180819162457 71 233 4.0 10.0 0.00 0.00 0.00 75 1017.4
20180819161457 71 211 6.0 10.0 0.00 0.00 0.00 75 1017.5
20180819160958 71 206 2.0 6.0 0.00 0.00 0.00 75 1017.5
20180819160458 71 233 4.0 7.0 0.00 0.00 0.00 74 1017.5
20180819155457 71 184 5.0 13.0 0.00 0.00 0.00 74 1017.5
20180819154957 71 226 5.0 10.0 0.00 0.00 0.00 74 1017.5
20180819153959 71 235 5.0 13.0 0.00 0.00 0.00 75 1017.6
20180819152958 71 235 3.0 7.0 0.00 0.00 0.00 75 1017.6
20180819151457 71 234 6.0 12.0 0.00 0.00 0.00 74 1017.6
20180819150458 71 230 5.0 14.0 0.00 0.00 0.00 75 1017.7
20180819145958 71 226 6.0 13.0 0.00 0.00 0.00 74 1017.7
20180819145457 71 238 6.0 12.0 0.00 0.00 0.00 74 1017.7
20180819144958 71 225 5.0 12.0 0.00 0.00 0.00 74 1017.8
20180819142958 71 225 3.0 8.0 0.00 0.00 0.00 74 1017.8
20180819141959 71 224 6.0 12.0 0.00 0.00 0.00 73 1017.8
20180819140957 71 210 5.0 10.0 0.00 0.00 0.00 73 1017.9
20180819140457 71 236 4.0 10.0 0.00 0.00 0.00 74 1017.9
20180819135958 71 231 5.0 8.0 0.00 0.00 0.00 74 1018.0
20180819135457 71 222 4.0 12.0 0.00 0.00 0.00 74 1018.2
20180819134959 70 217 3.0 8.0 0.00 0.00 0.00 75 1018.2
20180819133458 70 212 4.0 9.0 0.00 0.00 0.00 75 1018.4
20180819132958 70 218 2.0 6.0 0.00 0.00 0.00 76 1018.4
20180819132457 70 235 5.0 13.0 0.00 0.00 0.00 75 1018.4
20180819131958 70 226 2.0 5.0 0.00 0.01 0.00 76 1018.5
20180819131457 70 201 5.0 12.0 0.00 0.01 0.00 76 1018.5
20180819130958 70 190 5.0 12.0 0.00 0.01 0.00 75 1018.5
20180819130458 70 235 3.0 9.0 0.00 0.01 0.00 76 1018.5
20180819125457 70 244 3.0 8.0 0.00 0.01 0.00 75 1018.5
20180819124958 70 226 6.0 13.0 0.00 0.01 0.00 74 1018.5
20180819123958 70 226 3.0 9.0 0.00 0.01 0.00 74 1018.7
20180819123457 70 225 5.0 12.0 0.00 0.01 0.00 74 1018.8
20180819122958 70 213 5.0 10.0 0.00 0.01 0.00 73 1018.8
20180819122457 71 221 5.0 12.0 0.00 0.01 0.00 73 1018.8
20180819120958 71 213 4.0 8.0 0.00 0.01 0.00 71 1018.8
20180819120458 71 193 3.0 7.0 0.00 0.01 0.00 71 1018.8
20180819115957 71 238 3.0 10.0 0.00 0.01 0.00 71 1018.8
20180819115457 71 214 4.0 10.0 0.00 0.01 0.00 70 1018.8
20180819114958 70 194 3.0 10.0 0.00 0.01 0.00 72 1018.8
20180819114457 70 232 6.0 14.0 0.00 0.01 0.00 71 1018.8
20180819113458 70 205 3.0 9.0 0.00 0.01 0.00 71 1018.9
20180819112958 70 194 5.0 10.0 0.00 0.01 0.00 71 1019.0
20180819111958 70 213 3.0 8.0 0.00 0.01 0.00 70 1019.1
20180819111457 70 172 3.0 9.0 0.00 0.01 0.00 70 1019.0
20180819110958 70 198 4.0 7.0 0.00 0.01 0.00 70 1019.0